Strona główna
METAR-TAF:

METAR-TAF

Lotnisko :

Port lotniczy Marsa Alam

Marsa Alam, Egipt

Szerokość geograficzna: 25-33-25N, Długość geograficzna: 34-35-01E, wysokość: 77 m

Aktualna obserwacja pogody

Raport powstał 51 minut temu, godzina 00:00 UTC
Wiatr 6 kt od zachodnio-południowy zachód
Temperatura 16°C
Wilgotność 42%
Ciśnienie 1016 hPa
Widzialność 10 km lub więcej
Brak chmur poniżej 1500 m i brak chmur cumulonimbus

METAR: HEMA 160000Z 25006KT CAVOK 16/03 Q1016 NOSIG

czas: 02:51 (00:51 UTC)

Prognoza

Raport powstał 1 godzina i 51 minut temu, godzina 23:00 UTC
Prognoza ważna od 16 godzina 00 UTC do 17 godzina 06 UTC
Wiatr 8 kt od zachodnio-północny zachód w porywach dochodzący do 20 kt
Widzialność 10 km lub więcej
Brak chmur poniżej 1500 m i brak chmur cumulonimbus

TAF: HEMA 152300Z 1600/1706 29008G20KT CAVOK

Obserwacja i prognoza pogody dla ponad 4000 lotnisk (raport METAR i TAF).

Dostępne stacje oznaczono żółtymi i czerwonymi punktami na mapie.

Najedź kursorem aby zobaczyć nazwę stacji.

Kliknij aby zobaczyć obserwacje i prognozy pogody.

Aby zmienić mapę: kliknij na zielony przycisk z czarnym krzyżykiem, aby powiększyć; na zielony przycisk z myślnikiem, aby pomniejszyć; na zielone strzałki, aby przejść do map sąsiednich.


METAR-TAF: